Terminal Aerodrome Forecast
Issued by NWS

Home | Current Version | Previous Version | Text Only | Print | Product List | Glossary On
Versions: 1 2 3 4 5 6 7 8 9 10 11 12 13 14
000
FTUS44 KCRP 160533
TAFALI
TAF
KALI 160533Z 1606/1706 12005KT P6SM BKN060
     FM160800 08005KT P6SM VCSH SCT025 OVC050
      TEMPO 1608/1610 5SM SHRA BR OVC025
     FM161000 36017G26KT P6SM -SHRA OVC008
     FM161500 01023G32KT P6SM -SHRA OVC012
     FM161800 01018G28KT P6SM -FZRA OVC015
      TEMPO 1620/1624 5SM -FZRAPL
     FM170200 35012KT P6SM OVC025=

USA.gov is the U.S. government's official web portal to all federal, state and local government web resources and services.